createdAt,value
2019-05-25T00:01:54.752Z,7.77
2019-05-25T00:04:23.992Z,7.23
2019-05-25T00:06:54.200Z,6.83
2019-05-25T00:09:25.105Z,6.20
2019-05-25T00:11:53.996Z,5.27
2019-05-25T00:14:22.987Z,4.77
2019-05-25T00:16:54.466Z,4.00
2019-05-25T00:19:23.584Z,6.13
2019-05-25T00:21:52.510Z,5.20
2019-05-25T00:24:21.499Z,4.60
2019-05-25T00:26:50.441Z,3.73
2019-05-25T00:29:21.256Z,3.90
2019-05-25T00:31:53.160Z,3.57
2019-05-25T00:34:22.148Z,3.80
2019-05-25T00:36:51.096Z,4.10
2019-05-25T00:39:19.939Z,4.70
2019-05-25T00:41:48.837Z,4.43
2019-05-25T00:44:17.757Z,4.13
2019-05-25T00:46:46.721Z,4.40
2019-05-25T00:49:18.515Z,4.10
2019-05-25T00:51:47.388Z,4.13
2019-05-25T00:54:27.550Z,4.00
2019-05-25T00:56:47.121Z,3.90
2019-05-25T00:59:16.007Z,4.03
2019-05-25T01:01:45.026Z,4.50
2019-05-25T01:04:15.697Z,3.80
2019-05-25T01:06:44.587Z,3.67
2019-05-25T01:09:13.626Z,4.10
2019-05-25T01:11:45.316Z,4.67
2019-05-25T01:14:14.164Z,4.10
2019-05-25T01:16:45.023Z,3.97
2019-05-25T01:19:14.177Z,4.30
2019-05-25T01:21:43.223Z,3.67
2019-05-25T01:24:15.143Z,4.30
2019-05-25T01:26:44.101Z,4.50
2019-05-25T01:29:15.717Z,5.07
2019-05-25T01:31:44.588Z,5.20
2019-05-25T01:34:13.542Z,5.07
2019-05-25T01:36:42.421Z,5.97
2019-05-25T01:39:11.372Z,5.30
2019-05-25T01:41:40.408Z,5.43
2019-05-25T01:44:09.428Z,6.00
2019-05-25T01:46:39.481Z,5.90
2019-05-25T01:49:08.391Z,6.17
2019-05-25T01:51:37.398Z,4.80
2019-05-25T01:54:06.231Z,4.20
2019-05-25T01:56:35.127Z,5.17
2019-05-25T01:59:04.251Z,4.10
2019-05-25T02:01:33.252Z,5.17
2019-05-25T02:04:02.214Z,4.00
2019-05-25T02:06:31.319Z,5.07
2019-05-25T02:09:00.431Z,4.43
2019-05-25T02:11:29.498Z,4.70
2019-05-25T02:13:58.702Z,4.93
2019-05-25T02:16:27.945Z,4.43
2019-05-25T02:18:59.381Z,6.23
2019-05-25T02:21:28.245Z,6.77
2019-05-25T02:23:57.177Z,7.33
2019-05-25T02:26:26.060Z,7.10
2019-05-25T02:28:55.053Z,7.10
2019-05-25T02:31:24.047Z,6.53
2019-05-25T02:33:52.840Z,5.83
2019-05-25T02:36:21.733Z,6.10
2019-05-25T02:38:50.671Z,6.33
2019-05-25T02:41:19.564Z,6.73
2019-05-25T02:43:50.758Z,7.47
2019-05-25T02:46:19.648Z,8.20
2019-05-25T02:48:48.544Z,9.40
2019-05-25T02:51:17.412Z,9.23
2019-05-25T02:53:49.243Z,9.73
2019-05-25T02:56:18.191Z,10.90
2019-05-25T02:58:47.022Z,11.00
2019-05-25T03:01:15.956Z,11.30
2019-05-25T03:03:44.907Z,11.00
2019-05-25T03:06:13.810Z,11.77
2019-05-25T03:08:44.446Z,12.53
2019-05-25T03:11:13.554Z,13.73
2019-05-25T03:13:42.708Z,14.63
2019-05-25T03:16:11.676Z,13.47
2019-05-25T03:18:40.651Z,14.67
2019-05-25T03:21:09.643Z,14.53
2019-05-25T03:23:38.559Z,17.73
2019-05-25T03:26:07.415Z,17.53
2019-05-25T03:28:36.357Z,17.37
2019-05-25T03:31:05.292Z,16.93
2019-05-25T03:33:34.343Z,16.63
2019-05-25T03:36:03.608Z,16.53
2019-05-25T03:38:32.550Z,16.27
2019-05-25T03:41:01.430Z,15.83
2019-05-25T03:43:30.484Z,14.97
2019-05-25T03:45:59.598Z,13.67
2019-05-25T03:48:28.615Z,12.40
2019-05-25T03:50:58.236Z,13.27
2019-05-25T03:53:27.261Z,14.10
2019-05-25T03:56:05.344Z,13.47
2019-05-25T03:58:26.836Z,15.10
2019-05-25T04:00:55.790Z,15.23
2019-05-25T04:03:24.736Z,14.30
2019-05-25T04:05:53.780Z,14.80
2019-05-25T04:08:22.572Z,14.50
2019-05-25T04:10:51.430Z,14.97
2019-05-25T04:13:20.280Z,14.97
2019-05-25T04:15:49.253Z,15.13
2019-05-25T04:18:18.057Z,14.97
2019-05-25T04:20:46.989Z,14.50
2019-05-25T04:23:15.975Z,14.17
2019-05-25T04:25:47.094Z,14.27
2019-05-25T04:28:19.087Z,14.47
2019-05-25T04:30:48.004Z,12.87
2019-05-25T04:33:16.961Z,12.83
2019-05-25T04:35:45.698Z,11.43
2019-05-25T04:38:14.451Z,12.50
2019-05-25T04:40:43.200Z,10.33
2019-05-25T04:43:12.041Z,11.10
2019-05-25T04:45:40.866Z,10.50
2019-05-25T04:48:09.621Z,9.00
2019-05-25T04:50:38.369Z,9.70
2019-05-25T04:53:07.128Z,10.30
2019-05-25T04:55:35.941Z,10.37
2019-05-25T04:58:04.975Z,10.20
2019-05-25T05:00:33.798Z,10.70
2019-05-25T05:03:02.606Z,10.30
2019-05-25T05:05:31.376Z,10.47
2019-05-25T05:08:00.207Z,9.23
2019-05-25T05:10:28.958Z,9.97
2019-05-25T05:12:57.808Z,10.10
2019-05-25T05:15:26.551Z,9.10
2019-05-25T05:17:55.369Z,9.87
2019-05-25T05:20:24.316Z,10.47
2019-05-25T05:22:53.126Z,10.83
2019-05-25T05:25:21.888Z,10.73
2019-05-25T05:27:50.707Z,12.47
2019-05-25T05:30:22.904Z,11.97
2019-05-25T05:32:51.651Z,11.27
2019-05-25T05:35:20.407Z,11.13
2019-05-25T05:37:49.408Z,10.40
2019-05-25T05:40:18.404Z,10.67
2019-05-25T05:42:49.351Z,10.53
2019-05-25T05:45:18.193Z,11.20
2019-05-25T05:47:50.186Z,11.53
2019-05-25T05:50:19.581Z,11.07
2019-05-25T05:52:51.088Z,9.80
2019-05-25T05:55:45.307Z,10.73
2019-05-25T05:57:54.682Z,8.37
2019-05-25T06:00:23.674Z,8.40
2019-05-25T06:02:52.672Z,8.53
2019-05-25T06:05:21.436Z,8.63
2019-05-25T06:07:50.317Z,7.47
2019-05-25T06:10:19.533Z,7.80
2019-05-25T06:12:48.757Z,7.13
2019-05-25T06:15:18.157Z,6.93
2019-05-25T06:17:46.981Z,6.53
2019-05-25T06:20:15.878Z,6.80
2019-05-25T06:22:44.632Z,6.50
2019-05-25T06:25:13.643Z,7.77
2019-05-25T06:27:42.457Z,6.77
2019-05-25T06:30:12.163Z,6.40
2019-05-25T06:32:40.896Z,7.20
2019-05-25T06:35:09.909Z,7.90
2019-05-25T06:37:38.653Z,7.77
2019-05-25T06:40:08.445Z,6.70
2019-05-25T06:42:37.344Z,6.43
2019-05-25T06:45:07.476Z,6.40
2019-05-25T06:47:36.423Z,6.63
2019-05-25T06:50:05.987Z,6.87
2019-05-25T06:52:34.820Z,6.80
2019-05-25T06:55:03.881Z,6.07
2019-05-25T06:57:42.563Z,5.90
2019-05-25T07:00:03.382Z,5.73
2019-05-25T07:02:32.138Z,6.60
2019-05-25T07:05:00.878Z,6.47
2019-05-25T07:07:29.637Z,5.60
2019-05-25T07:09:58.494Z,6.17
2019-05-25T07:12:27.236Z,6.13
2019-05-25T07:14:56.057Z,5.50
2019-05-25T07:17:24.866Z,6.47
2019-05-25T07:19:53.651Z,5.70
2019-05-25T07:22:22.601Z,6.47
2019-05-25T07:24:51.537Z,5.87
2019-05-25T07:27:20.389Z,6.35
2019-05-25T07:29:49.193Z,6.07
2019-05-25T07:32:17.999Z,5.80
2019-05-25T07:34:46.731Z,6.30
2019-05-25T07:37:15.678Z,5.95
2019-05-25T07:39:44.505Z,6.00
2019-05-25T07:42:13.582Z,6.08
2019-05-25T07:44:42.341Z,6.75
2019-05-25T07:47:11.180Z,5.60
2019-05-25T07:49:40.020Z,5.80
2019-05-25T07:52:08.765Z,6.47
2019-05-25T07:54:37.513Z,6.03
2019-05-25T07:57:06.444Z,6.03
2019-05-25T07:59:35.201Z,5.72
2019-05-25T08:02:04.040Z,5.95
2019-05-25T08:04:32.796Z,7.00
2019-05-25T08:07:01.608Z,7.10
2019-05-25T08:09:30.361Z,7.10
2019-05-25T08:11:59.376Z,7.60
2019-05-25T08:14:28.117Z,6.10
2019-05-25T08:16:56.983Z,7.10
2019-05-25T08:19:25.881Z,7.22
2019-05-25T08:21:54.722Z,6.53
2019-05-25T08:24:23.514Z,6.83
2019-05-25T08:26:52.255Z,6.20
2019-05-25T08:29:21.072Z,7.08
2019-05-25T08:31:49.829Z,6.58
2019-05-25T08:34:18.656Z,6.47
2019-05-25T08:36:47.682Z,7.08
2019-05-25T08:39:16.522Z,7.50
2019-05-25T08:41:45.729Z,7.47
2019-05-25T08:44:14.632Z,7.35
2019-05-25T08:46:43.483Z,7.67
2019-05-25T08:49:12.372Z,7.75
2019-05-25T08:51:41.279Z,7.90
2019-05-25T08:54:10.138Z,8.15
2019-05-25T08:56:38.879Z,6.85
2019-05-25T08:59:07.779Z,6.78
2019-05-25T09:01:36.804Z,7.28
2019-05-25T09:04:05.689Z,7.40
2019-05-25T09:06:34.490Z,7.33
2019-05-25T09:09:04.496Z,7.10
2019-05-25T09:11:33.261Z,6.72
2019-05-25T09:14:02.009Z,6.65
2019-05-25T09:16:30.901Z,6.10
2019-05-25T09:18:59.763Z,6.30
2019-05-25T09:21:28.524Z,7.10
2019-05-25T09:23:57.380Z,7.20
2019-05-25T09:26:26.467Z,6.80
2019-05-25T09:29:04.018Z,6.37
2019-05-25T09:31:25.743Z,6.60
2019-05-25T09:33:54.502Z,7.28
2019-05-25T09:36:23.315Z,6.42
2019-05-25T09:38:52.078Z,5.90
2019-05-25T09:41:20.832Z,7.35
2019-05-25T09:43:49.625Z,6.67
2019-05-25T09:46:18.512Z,8.05
2019-05-25T09:48:47.329Z,7.25
2019-05-25T09:51:16.145Z,7.50
2019-05-25T09:53:45.180Z,7.97
2019-05-25T09:56:13.955Z,7.08
2019-05-25T09:58:42.787Z,7.97
2019-05-25T10:01:11.630Z,7.53
2019-05-25T10:03:40.390Z,7.53
2019-05-25T10:06:12.754Z,8.95
2019-05-25T10:08:39.794Z,7.72
2019-05-25T10:11:08.590Z,7.85
2019-05-25T10:13:37.419Z,8.20
2019-05-25T10:16:08.409Z,8.30
2019-05-25T10:18:37.296Z,7.22
2019-05-25T10:21:06.166Z,7.70
2019-05-25T10:23:35.030Z,8.08
2019-05-25T10:26:03.811Z,8.10
2019-05-25T10:28:34.767Z,8.43
2019-05-25T10:31:03.595Z,8.40
2019-05-25T10:33:32.833Z,7.08
2019-05-25T10:36:02.009Z,8.35
2019-05-25T10:38:30.900Z,7.80
2019-05-25T10:40:59.734Z,7.58
2019-05-25T10:43:28.748Z,7.30
2019-05-25T10:45:57.577Z,7.55
2019-05-25T10:48:26.340Z,8.05
2019-05-25T10:50:55.128Z,7.35
2019-05-25T10:53:23.939Z,7.85
2019-05-25T10:55:52.729Z,7.78
2019-05-25T10:58:21.474Z,7.75
2019-05-25T11:00:50.672Z,7.55
2019-05-25T11:03:19.855Z,7.25
2019-05-25T11:05:48.632Z,8.60
2019-05-25T11:08:17.439Z,7.30
2019-05-25T11:10:46.198Z,7.03
2019-05-25T11:13:15.041Z,6.28
2019-05-25T11:15:43.902Z,6.50
2019-05-25T11:18:12.733Z,5.92
2019-05-25T11:20:41.692Z,5.83
2019-05-25T11:23:10.472Z,6.45
2019-05-25T11:25:39.432Z,6.62
2019-05-25T11:28:08.588Z,5.92
2019-05-25T11:30:37.351Z,5.80
2019-05-25T11:33:06.274Z,6.00
2019-05-25T11:35:35.298Z,6.10
2019-05-25T11:38:04.200Z,6.72
2019-05-25T11:40:33.175Z,6.78
2019-05-25T11:43:02.023Z,5.90
2019-05-25T11:45:30.972Z,6.12
2019-05-25T11:47:59.741Z,5.55
2019-05-25T11:50:28.755Z,5.95
2019-05-25T11:52:57.574Z,6.20
2019-05-25T11:55:26.486Z,6.10
2019-05-25T11:57:55.292Z,5.37
2019-05-25T12:00:26.062Z,6.12
2019-05-25T12:02:55.132Z,6.72
2019-05-25T12:05:23.965Z,6.53
2019-05-25T12:07:52.799Z,5.28
2019-05-25T12:10:21.823Z,5.08
2019-05-25T12:12:50.663Z,5.70
2019-05-25T12:15:19.646Z,7.58
2019-05-25T12:17:48.580Z,7.72
2019-05-25T12:20:18.135Z,7.58
2019-05-25T12:22:46.907Z,7.92
2019-05-25T12:25:16.648Z,8.30
2019-05-25T12:27:48.892Z,8.45
2019-05-25T12:30:16.251Z,7.67
2019-05-25T12:32:45.062Z,7.85
2019-05-25T12:35:14.243Z,7.72
2019-05-25T12:37:43.150Z,8.30
2019-05-25T12:40:12.101Z,7.65
2019-05-25T12:42:40.928Z,7.50
2019-05-25T12:45:11.427Z,7.28
2019-05-25T12:47:40.328Z,7.83
2019-05-25T12:50:09.335Z,7.42
2019-05-25T12:52:38.170Z,7.65
2019-05-25T12:55:07.319Z,8.15
2019-05-25T12:57:36.128Z,7.92
2019-05-25T13:00:15.610Z,7.47
2019-05-25T13:02:36.496Z,7.72
2019-05-25T13:05:05.523Z,8.63
2019-05-25T13:07:34.613Z,8.98
2019-05-25T13:10:03.810Z,8.48
2019-05-25T13:12:32.622Z,7.47
2019-05-25T13:15:01.390Z,8.40
2019-05-25T13:17:31.831Z,7.95
2019-05-25T13:20:00.679Z,7.60
2019-05-25T13:22:29.539Z,7.47
2019-05-25T13:24:58.591Z,7.40
2019-05-25T13:27:27.652Z,7.10
2019-05-25T13:29:56.495Z,7.75
2019-05-25T13:32:25.384Z,7.58
2019-05-25T13:34:54.237Z,8.03
2019-05-25T13:37:23.096Z,7.83
2019-05-25T13:39:51.973Z,7.67
2019-05-25T13:42:20.748Z,7.75
2019-05-25T13:44:49.611Z,8.10
2019-05-25T13:47:18.396Z,7.90
2019-05-25T13:49:47.168Z,7.95
2019-05-25T13:52:15.968Z,7.12
2019-05-25T13:54:44.791Z,6.42
2019-05-25T13:57:13.534Z,5.75
2019-05-25T13:59:42.340Z,5.25
2019-05-25T14:02:11.102Z,4.45
2019-05-25T14:04:39.989Z,5.05
2019-05-25T14:07:08.793Z,4.00
2019-05-25T14:09:37.606Z,4.70
2019-05-25T14:12:06.383Z,4.08
2019-05-25T14:14:35.143Z,6.55
2019-05-25T14:17:04.012Z,8.10
2019-05-25T14:19:32.824Z,7.10
2019-05-25T14:22:01.848Z,6.22
2019-05-25T14:24:30.605Z,8.30
2019-05-25T14:26:59.589Z,6.60
2019-05-25T14:29:28.388Z,5.05
2019-05-25T14:31:57.174Z,5.08
2019-05-25T14:34:25.931Z,5.40
2019-05-25T14:36:54.777Z,5.10
2019-05-25T14:39:23.752Z,5.17
2019-05-25T14:41:52.563Z,3.67
2019-05-25T14:44:21.371Z,3.95
2019-05-25T14:46:51.805Z,4.65
2019-05-25T14:49:20.643Z,4.22
2019-05-25T14:51:49.422Z,4.30
2019-05-25T14:54:18.196Z,4.25
2019-05-25T14:56:46.976Z,4.00
2019-05-25T14:59:15.725Z,4.42
2019-05-25T15:02:01.140Z,4.30
2019-05-25T15:04:15.158Z,4.70
2019-05-25T15:06:55.483Z,4.10
2019-05-25T15:09:24.675Z,3.95
2019-05-25T15:11:56.567Z,4.40
2019-05-25T15:14:25.681Z,3.95
2019-05-25T15:16:54.752Z,4.03
2019-05-25T15:19:26.665Z,3.80
2019-05-25T15:21:55.808Z,4.00
2019-05-25T15:24:24.916Z,4.28
2019-05-25T15:27:08.458Z,3.25
2019-05-25T15:29:24.737Z,3.60
2019-05-25T15:31:53.535Z,3.72
2019-05-25T15:34:24.352Z,4.22
2019-05-25T15:36:53.245Z,5.00
2019-05-25T15:39:22.139Z,3.67
2019-05-25T15:41:50.955Z,3.60
2019-05-25T15:44:19.819Z,3.47
2019-05-25T15:46:48.619Z,3.55
2019-05-25T15:49:17.755Z,3.40
2019-05-25T15:51:46.682Z,3.55
2019-05-25T15:54:15.517Z,3.72
2019-05-25T15:56:44.387Z,3.55
2019-05-25T15:59:13.296Z,3.58
2019-05-25T16:01:42.289Z,3.37
2019-05-25T16:04:11.159Z,3.37
2019-05-25T16:06:39.925Z,3.47
2019-05-25T16:09:08.912Z,3.42
2019-05-25T16:11:37.696Z,3.52
2019-05-25T16:14:07.764Z,3.45
2019-05-25T16:16:36.790Z,3.15
2019-05-25T16:19:05.631Z,3.60
2019-05-25T16:21:34.424Z,3.58
2019-05-25T16:24:03.178Z,3.55
2019-05-25T16:26:44.918Z,3.40
2019-05-25T16:29:02.505Z,3.27
2019-05-25T16:31:31.340Z,3.20
2019-05-25T16:34:00.184Z,3.70
2019-05-25T16:36:29.025Z,3.70
2019-05-25T16:38:57.968Z,3.70
2019-05-25T16:41:26.724Z,3.50
2019-05-25T16:43:55.517Z,3.70
2019-05-25T16:46:26.400Z,3.45
2019-05-25T16:48:55.392Z,3.50
2019-05-25T16:51:25.590Z,3.42
2019-05-25T16:53:54.448Z,3.60
2019-05-25T16:56:23.351Z,3.30
2019-05-25T16:58:52.136Z,3.50
2019-05-25T17:01:20.906Z,3.30
2019-05-25T17:03:49.675Z,3.55
2019-05-25T17:06:18.424Z,3.80
2019-05-25T17:08:47.178Z,3.70
2019-05-25T17:11:15.948Z,3.65
2019-05-25T17:13:44.716Z,3.60
2019-05-25T17:16:13.498Z,3.75
2019-05-25T17:18:42.245Z,4.30
2019-05-25T17:21:11.009Z,5.22
2019-05-25T17:23:40.098Z,8.03
2019-05-25T17:26:08.908Z,5.50
2019-05-25T17:28:37.755Z,4.55
2019-05-25T17:31:06.597Z,4.10
2019-05-25T17:33:45.830Z,3.60
2019-05-25T17:36:12.961Z,3.80
2019-05-25T17:38:41.480Z,3.72
2019-05-25T17:41:11.403Z,3.77
2019-05-25T17:46:17.127Z,3.05
2019-05-25T17:48:45.902Z,3.27
2019-05-25T17:51:14.833Z,3.22
2019-05-25T17:53:43.652Z,3.05
2019-05-25T17:56:12.492Z,3.42
2019-05-25T17:58:49.730Z,3.58
2019-05-25T18:01:14.325Z,3.40
2019-05-25T18:04:04.243Z,3.33
2019-05-25T18:06:16.285Z,3.85
2019-05-25T18:08:45.189Z,4.12
2019-05-25T18:11:13.985Z,3.55
2019-05-25T18:13:43.317Z,4.05
2019-05-25T18:16:12.313Z,3.58
2019-05-25T18:18:41.125Z,3.50
2019-05-25T18:21:09.990Z,3.52
2019-05-25T18:23:38.918Z,3.62
2019-05-25T18:26:07.854Z,3.83
2019-05-25T18:28:36.797Z,3.50
2019-05-25T18:31:05.792Z,4.05
2019-05-25T18:33:36.566Z,3.58
2019-05-25T18:36:05.565Z,3.98
2019-05-25T18:38:34.805Z,3.65
2019-05-25T18:41:03.676Z,4.20
2019-05-25T18:43:32.497Z,4.20
2019-05-25T18:46:03.396Z,3.87
2019-05-25T18:48:40.519Z,2.98
2019-05-25T18:51:09.378Z,3.42
2019-05-25T18:53:38.351Z,3.62
2019-05-25T18:56:08.553Z,3.70
2019-05-25T18:58:37.580Z,3.35
2019-05-25T19:01:06.454Z,3.30
2019-05-25T19:03:37.622Z,3.00
2019-05-25T19:06:06.546Z,3.52
2019-05-25T19:08:35.400Z,3.27
2019-05-25T19:11:04.305Z,3.58
2019-05-25T19:13:33.667Z,3.70
2019-05-25T19:16:02.601Z,3.22
2019-05-25T19:18:31.509Z,3.60
2019-05-25T19:21:00.542Z,3.60
2019-05-25T19:23:29.454Z,3.67
2019-05-25T19:25:58.249Z,4.62
2019-05-25T19:28:27.079Z,5.40
2019-05-25T19:30:55.920Z,5.50
2019-05-25T19:33:25.200Z,6.85
2019-05-25T19:35:54.567Z,7.28
2019-05-25T19:38:23.880Z,5.60
2019-05-25T19:40:52.969Z,6.55
2019-05-25T19:43:24.416Z,6.30
2019-05-25T19:45:53.223Z,5.55
2019-05-25T19:48:22.149Z,5.35
2019-05-25T19:50:50.916Z,5.30
2019-05-25T19:53:19.710Z,5.08
2019-05-25T19:55:48.491Z,4.72
2019-05-25T19:58:17.371Z,4.75
2019-05-25T20:00:46.151Z,4.00
2019-05-25T20:03:15.021Z,4.35
2019-05-25T20:05:44.501Z,3.87
2019-05-25T20:08:13.347Z,3.85
2019-05-25T20:10:42.115Z,3.83
2019-05-25T20:13:10.873Z,3.33
2019-05-25T20:15:39.673Z,3.10
2019-05-25T20:18:08.537Z,3.12
2019-05-25T20:20:37.303Z,3.20
2019-05-25T20:23:06.150Z,3.87
2019-05-25T20:25:34.976Z,3.40
2019-05-25T20:28:03.812Z,3.72
2019-05-25T20:30:32.580Z,3.50
2019-05-25T20:33:01.347Z,3.42
2019-05-25T20:35:33.523Z,3.98
2019-05-25T20:38:00.708Z,4.07
2019-05-25T20:40:29.453Z,4.58
2019-05-25T20:42:58.256Z,4.53
2019-05-25T20:45:27.264Z,5.47
2019-05-25T20:47:56.029Z,4.73
2019-05-25T20:50:24.838Z,5.83
2019-05-25T20:52:53.749Z,5.63
2019-05-25T20:55:22.609Z,6.00
2019-05-25T20:57:51.337Z,6.53
2019-05-25T21:00:24.041Z,6.50
2019-05-25T21:03:05.198Z,6.62
2019-05-25T21:05:21.270Z,6.20
2019-05-25T21:07:50.127Z,7.10
2019-05-25T21:10:18.967Z,6.83
2019-05-25T21:12:47.825Z,6.75
2019-05-25T21:15:18.136Z,7.70
2019-05-25T21:17:46.889Z,8.70
2019-05-25T21:20:16.160Z,8.63
2019-05-25T21:22:44.901Z,7.73
2019-05-25T21:25:13.793Z,7.73
2019-05-25T21:27:42.543Z,8.00
2019-05-25T21:30:13.673Z,7.47
2019-05-25T21:32:42.494Z,7.60
2019-05-25T21:35:11.438Z,7.33
2019-05-25T21:37:40.199Z,8.40
2019-05-25T21:40:09.810Z,9.33
2019-05-25T21:42:38.629Z,10.97
2019-05-25T21:45:07.538Z,10.87
2019-05-25T21:47:36.285Z,12.10
2019-05-25T21:50:05.735Z,12.77
2019-05-25T21:52:34.493Z,14.23
2019-05-25T21:55:03.450Z,13.83
2019-05-25T21:57:32.224Z,15.37
2019-05-25T22:00:01.214Z,15.10
2019-05-25T22:02:30.004Z,15.03
2019-05-25T22:04:58.929Z,15.03
2019-05-25T22:07:27.765Z,14.77
2019-05-25T22:09:56.616Z,14.50
2019-05-25T22:12:25.560Z,16.33
2019-05-25T22:14:54.482Z,18.07
2019-05-25T22:17:23.300Z,17.83
2019-05-25T22:19:52.147Z,21.37
2019-05-25T22:22:21.050Z,21.60
2019-05-25T22:24:49.826Z,22.77
2019-05-25T22:27:18.667Z,21.93
2019-05-25T22:29:47.427Z,25.23
2019-05-25T22:32:16.184Z,24.57
2019-05-25T22:34:45.016Z,25.23
2019-05-25T22:37:13.792Z,24.73
2019-05-25T22:39:42.789Z,27.97
2019-05-25T22:42:11.616Z,27.63
2019-05-25T22:44:40.379Z,30.60
2019-05-25T22:47:09.126Z,31.70
2019-05-25T22:49:37.886Z,31.93
2019-05-25T22:52:06.638Z,30.50
2019-05-25T22:54:35.395Z,32.63
2019-05-25T22:57:04.685Z,30.13
2019-05-25T22:59:33.572Z,32.73
2019-05-25T23:02:02.332Z,34.07
2019-05-25T23:04:31.061Z,32.33
2019-05-25T23:06:59.999Z,32.47
2019-05-25T23:09:28.876Z,32.77
2019-05-25T23:11:57.723Z,35.43
2019-05-25T23:14:26.559Z,32.40
2019-05-25T23:16:55.297Z,35.40
2019-05-25T23:19:24.135Z,34.80
2019-05-25T23:21:52.876Z,34.83
2019-05-25T23:24:21.694Z,32.80
2019-05-25T23:26:50.447Z,35.57
2019-05-25T23:29:19.274Z,35.63
2019-05-25T23:31:48.046Z,37.43
2019-05-25T23:34:16.926Z,36.57
2019-05-25T23:36:45.694Z,37.00
2019-05-25T23:39:14.445Z,37.53
2019-05-25T23:41:43.585Z,37.07
2019-05-25T23:44:12.355Z,36.03
2019-05-25T23:46:41.152Z,37.90
2019-05-25T23:49:09.963Z,36.53
2019-05-25T23:51:38.789Z,38.03
2019-05-25T23:54:07.568Z,41.03
2019-05-25T23:56:36.479Z,37.23
2019-05-25T23:59:05.328Z,36.37
